createdAt,value
2023-11-06T00:00:01.213Z,89.17
2023-11-06T00:02:46.899Z,89.72
2023-11-06T00:05:32.381Z,89.59
2023-11-06T00:08:17.706Z,89.78
2023-11-06T00:11:03.710Z,90.14
2023-11-06T00:13:49.120Z,91.11
2023-11-06T00:16:34.323Z,90.72
2023-11-06T00:19:20.671Z,91.36
2023-11-06T00:22:07.153Z,90.93
2023-11-06T00:24:52.218Z,90.99
2023-11-06T00:27:37.742Z,91.56
2023-11-06T00:30:23.402Z,91.37
2023-11-06T00:33:09.077Z,91.43
2023-11-06T00:35:54.549Z,91.33
2023-11-06T00:38:40.827Z,91.51
2023-11-06T00:41:25.990Z,90.55
2023-11-06T00:44:11.517Z,90.98
2023-11-06T00:46:57.082Z,91.35
2023-11-06T00:49:42.422Z,90.85
2023-11-06T00:52:27.997Z,91.13
2023-11-06T00:55:13.524Z,90.54
2023-11-06T00:57:58.847Z,91.33
2023-11-06T01:00:44.714Z,91.46
2023-11-06T01:03:29.994Z,91.82
2023-11-06T01:06:15.398Z,91.86
2023-11-06T01:09:01.709Z,91.64
2023-11-06T01:11:49.808Z,91.18
2023-11-06T01:14:35.151Z,91.64
2023-11-06T01:17:20.788Z,91.85
2023-11-06T01:20:06.562Z,91.50
2023-11-06T01:22:52.228Z,91.56
2023-11-06T01:25:37.514Z,91.32
2023-11-06T01:28:23.206Z,91.36
2023-11-06T01:31:08.366Z,92.02
2023-11-06T01:33:53.791Z,92.20
2023-11-06T01:36:45.779Z,91.83
2023-11-06T01:39:32.102Z,91.03
2023-11-06T01:42:17.238Z,91.30
2023-11-06T01:45:03.793Z,90.97
2023-11-06T01:47:52.336Z,91.54
2023-11-06T01:50:38.209Z,90.88
2023-11-06T01:53:26.973Z,91.22
2023-11-06T01:56:14.007Z,91.32
2023-11-06T01:59:00.123Z,91.05
2023-11-06T02:01:48.848Z,91.11
2023-11-06T02:04:34.100Z,91.60
2023-11-06T02:07:19.796Z,92.51
2023-11-06T02:10:05.195Z,92.52
2023-11-06T02:12:50.279Z,91.92
2023-11-06T02:15:35.492Z,92.82
2023-11-06T02:18:23.088Z,92.19
2023-11-06T02:21:09.295Z,92.96
2023-11-06T02:23:54.967Z,93.43
2023-11-06T02:26:40.100Z,93.75
2023-11-06T02:29:25.458Z,93.54
2023-11-06T02:32:11.578Z,94.28
2023-11-06T02:34:56.651Z,94.31
2023-11-06T02:37:42.153Z,94.37
2023-11-06T02:40:27.703Z,93.46
2023-11-06T02:43:13.049Z,94.13
2023-11-06T02:45:58.588Z,94.06
2023-11-06T02:48:43.967Z,93.87
2023-11-06T02:51:29.207Z,94.13
2023-11-06T02:54:14.701Z,94.05
2023-11-06T02:57:00.450Z,93.70
2023-11-06T02:59:45.813Z,93.33
2023-11-06T03:02:30.943Z,92.82
2023-11-06T03:05:18.080Z,92.25
2023-11-06T03:08:03.525Z,92.26
2023-11-06T03:10:48.835Z,92.73
2023-11-06T03:13:34.395Z,92.42
2023-11-06T03:16:19.513Z,92.79
2023-11-06T03:19:05.992Z,92.98
2023-11-06T03:21:52.502Z,93.17
2023-11-06T03:24:37.864Z,94.16
2023-11-06T03:27:23.333Z,93.79
2023-11-06T03:30:08.992Z,94.38
2023-11-06T03:32:54.034Z,94.57
2023-11-06T03:35:39.229Z,95.42
2023-11-06T03:38:24.866Z,96.23
2023-11-06T03:41:10.051Z,96.24
2023-11-06T03:43:55.516Z,96.73
2023-11-06T03:46:40.892Z,96.29
2023-11-06T03:49:26.978Z,95.81
2023-11-06T03:52:13.130Z,95.06
2023-11-06T03:54:58.328Z,94.30
2023-11-06T03:57:43.898Z,93.99
2023-11-06T04:00:29.154Z,93.62
2023-11-06T04:03:14.704Z,93.93
2023-11-06T04:06:04.316Z,93.29
2023-11-06T04:08:49.478Z,94.58
2023-11-06T04:11:34.768Z,93.71
2023-11-06T04:14:20.192Z,93.22
2023-11-06T04:17:05.830Z,93.00
2023-11-06T04:19:51.160Z,92.93
2023-11-06T04:22:36.755Z,92.49
2023-11-06T04:25:22.528Z,92.85
2023-11-06T04:28:07.525Z,92.31
2023-11-06T04:30:52.943Z,92.78
2023-11-06T04:33:38.353Z,92.42
2023-11-06T04:36:23.674Z,92.67
2023-11-06T04:39:11.216Z,92.56
2023-11-06T04:41:56.517Z,92.39
2023-11-06T04:44:41.939Z,92.42
2023-11-06T04:47:28.979Z,93.71
2023-11-06T04:50:14.468Z,94.05
2023-11-06T04:52:59.724Z,94.30
2023-11-06T04:55:45.181Z,94.17
2023-11-06T04:58:30.686Z,94.26
2023-11-06T05:01:19.760Z,94.24
2023-11-06T05:04:05.313Z,93.73
2023-11-06T05:06:50.512Z,93.30
2023-11-06T05:09:35.886Z,93.32
2023-11-06T05:12:21.083Z,94.00
2023-11-06T05:15:07.119Z,93.80
2023-11-06T05:17:52.496Z,93.87
2023-11-06T05:20:40.698Z,94.54
2023-11-06T05:23:25.816Z,94.64
2023-11-06T05:26:11.326Z,94.02
2023-11-06T05:28:57.012Z,94.11
2023-11-06T05:31:42.719Z,93.95
2023-11-06T05:34:27.966Z,93.67
2023-11-06T05:37:13.239Z,93.71
2023-11-06T05:39:58.438Z,94.10
2023-11-06T05:42:43.955Z,94.13
2023-11-06T05:45:29.449Z,93.99
2023-11-06T05:48:14.706Z,94.27
2023-11-06T05:51:00.397Z,93.72
2023-11-06T05:53:45.535Z,94.05
2023-11-06T05:56:31.318Z,93.50
2023-11-06T05:59:17.037Z,93.54
2023-11-06T06:02:02.158Z,93.54
2023-11-06T06:04:47.442Z,93.37
2023-11-06T06:07:32.800Z,93.22
2023-11-06T06:10:18.411Z,93.05
2023-11-06T06:13:04.097Z,93.09
2023-11-06T06:15:49.493Z,93.04
2023-11-06T06:18:34.922Z,92.64
2023-11-06T06:21:20.513Z,92.49
2023-11-06T06:24:06.386Z,92.90
2023-11-06T06:26:51.509Z,92.90
2023-11-06T06:29:36.929Z,93.11
2023-11-06T06:32:22.098Z,92.65
2023-11-06T06:35:08.273Z,92.68
2023-11-06T06:37:55.098Z,93.25
2023-11-06T06:40:40.327Z,92.83
2023-11-06T06:43:25.779Z,92.38
2023-11-06T06:46:11.327Z,91.97
2023-11-06T06:48:56.960Z,91.95
2023-11-06T06:51:42.352Z,91.13
2023-11-06T06:54:27.559Z,91.39
2023-11-06T06:57:12.997Z,91.11
2023-11-06T06:59:58.115Z,90.97
2023-11-06T07:02:43.701Z,90.69
2023-11-06T07:05:29.386Z,90.75
2023-11-06T07:08:14.609Z,89.22
2023-11-06T07:10:59.825Z,89.33
2023-11-06T07:13:45.156Z,88.10
2023-11-06T07:16:30.215Z,87.89
2023-11-06T07:19:15.603Z,86.18
2023-11-06T07:32:58.938Z,80.76
2023-11-06T07:35:44.693Z,80.34
2023-11-06T07:38:30.571Z,79.74
2023-11-06T07:41:16.408Z,80.00
2023-11-06T07:44:01.819Z,80.22
2023-11-06T07:46:47.265Z,80.77
2023-11-06T07:49:32.756Z,81.14
2023-11-06T07:52:19.638Z,81.11
2023-11-06T07:55:05.819Z,78.97
2023-11-06T07:57:51.235Z,78.64
2023-11-06T08:00:46.536Z,78.97
2023-11-06T08:03:34.796Z,78.68
2023-11-06T08:06:20.445Z,78.17
2023-11-06T08:09:06.313Z,78.30
2023-11-06T08:11:51.405Z,79.98
2023-11-06T08:14:36.768Z,80.91
2023-11-06T08:17:22.149Z,79.77
2023-11-06T08:20:10.452Z,79.27
2023-11-06T08:22:55.944Z,79.06
2023-11-06T08:25:41.363Z,79.38
2023-11-06T08:28:26.965Z,77.98
2023-11-06T08:31:12.263Z,75.31
2023-11-06T08:33:57.698Z,73.09
2023-11-06T08:36:46.516Z,73.83
2023-11-06T08:39:31.679Z,73.09
2023-11-06T08:42:17.165Z,72.94
2023-11-06T08:45:02.766Z,73.25
2023-11-06T08:47:47.833Z,73.18
2023-11-06T08:50:33.224Z,71.99
2023-11-06T08:53:18.530Z,72.19
2023-11-06T08:56:04.365Z,71.28
2023-11-06T08:58:49.455Z,71.67
2023-11-06T09:01:34.887Z,71.30
2023-11-06T09:04:20.456Z,70.17
2023-11-06T09:07:07.068Z,70.06
2023-11-06T09:09:52.272Z,70.14
2023-11-06T09:12:37.599Z,69.79
2023-11-06T09:15:22.945Z,69.80
2023-11-06T09:18:08.438Z,68.76
2023-11-06T09:20:55.412Z,68.35
2023-11-06T09:23:42.282Z,68.74
2023-11-06T09:26:27.982Z,68.57
2023-11-06T09:29:13.367Z,67.91
2023-11-06T09:31:58.844Z,68.29
2023-11-06T09:34:44.398Z,68.13
2023-11-06T09:37:29.723Z,68.50
2023-11-06T09:40:22.341Z,67.90
2023-11-06T09:43:08.620Z,67.98
2023-11-06T09:45:54.005Z,67.74
2023-11-06T09:48:40.747Z,65.86
2023-11-06T09:51:34.888Z,66.20
2023-11-06T09:54:26.154Z,66.37
2023-11-06T09:57:12.970Z,66.83
2023-11-06T09:59:59.518Z,65.94
2023-11-06T10:02:45.771Z,65.51
2023-11-06T10:05:31.094Z,65.46
2023-11-06T10:08:29.586Z,63.54
2023-11-06T10:11:23.207Z,61.82
2023-11-06T10:14:08.324Z,63.04
2023-11-06T10:17:03.153Z,62.34
2023-11-06T10:20:00.740Z,61.96
2023-11-06T10:22:58.945Z,61.94
2023-11-06T10:25:44.169Z,62.67
2023-11-06T10:28:29.799Z,61.13
2023-11-06T10:31:15.933Z,61.04
2023-11-06T10:34:01.454Z,60.90
2023-11-06T10:36:47.075Z,60.88
2023-11-06T10:39:33.117Z,58.62
2023-11-06T10:42:20.711Z,59.51
2023-11-06T10:45:11.250Z,58.15
2023-11-06T10:48:04.680Z,58.93
2023-11-06T10:50:50.234Z,58.35
2023-11-06T10:53:35.800Z,57.26
2023-11-06T10:56:22.888Z,57.96
2023-11-06T10:59:09.778Z,56.19
2023-11-06T11:01:58.245Z,56.76
2023-11-06T11:04:43.959Z,57.65
2023-11-06T11:07:32.005Z,56.66
2023-11-06T11:10:20.907Z,56.45
2023-11-06T11:13:06.641Z,55.96
2023-11-06T11:15:52.199Z,55.08
2023-11-06T11:18:37.850Z,54.88
2023-11-06T11:21:23.207Z,55.46
2023-11-06T11:24:43.713Z,54.31
2023-11-06T11:27:29.184Z,55.17
2023-11-06T11:30:14.715Z,53.79
2023-11-06T11:33:02.240Z,54.71
2023-11-06T11:35:48.831Z,54.70
2023-11-06T11:38:35.540Z,55.20
2023-11-06T11:41:21.202Z,53.70
2023-11-06T11:44:12.269Z,53.39
2023-11-06T11:47:01.647Z,53.39
2023-11-06T11:49:48.678Z,51.72
2023-11-06T11:52:33.753Z,53.78
2023-11-06T11:55:36.073Z,53.88
2023-11-06T11:58:21.781Z,53.03
2023-11-06T12:01:09.275Z,53.46
2023-11-06T12:03:54.513Z,52.15
2023-11-06T12:06:39.915Z,52.86
2023-11-06T12:09:25.830Z,52.99
2023-11-06T12:12:11.735Z,52.17
2023-11-06T12:14:58.809Z,53.45
2023-11-06T12:17:44.398Z,52.83
2023-11-06T12:20:30.280Z,52.40
2023-11-06T12:23:16.000Z,51.93
2023-11-06T12:26:11.497Z,51.74
2023-11-06T12:28:57.464Z,51.47
2023-11-06T12:31:43.799Z,52.03
2023-11-06T12:34:28.910Z,52.02
2023-11-06T12:37:14.789Z,51.01
2023-11-06T12:40:20.629Z,52.03
2023-11-06T12:43:05.780Z,52.28
2023-11-06T12:45:56.972Z,51.00
2023-11-06T12:48:42.414Z,51.00
2023-11-06T12:51:27.791Z,50.96
2023-11-06T12:54:18.468Z,51.49
2023-11-06T12:57:07.963Z,50.50
2023-11-06T12:59:53.558Z,50.88
2023-11-06T13:02:38.801Z,51.35
2023-11-06T13:05:24.610Z,50.57
2023-11-06T13:08:10.224Z,51.02
2023-11-06T13:11:00.578Z,50.37
2023-11-06T13:13:46.540Z,50.79
2023-11-06T13:16:33.292Z,51.50
2023-11-06T13:19:26.561Z,51.07
2023-11-06T13:22:13.971Z,51.23
2023-11-06T13:24:59.406Z,51.43
2023-11-06T13:27:44.679Z,51.06
2023-11-06T13:30:30.096Z,51.10
2023-11-06T13:33:15.908Z,51.14
2023-11-06T13:36:01.615Z,51.03
2023-11-06T13:38:48.923Z,51.42
2023-11-06T13:41:36.976Z,50.92
2023-11-06T13:44:25.373Z,51.60
2023-11-06T13:47:10.732Z,51.57
2023-11-06T13:49:56.152Z,51.82
2023-11-06T13:52:43.814Z,52.01
2023-11-06T13:55:34.687Z,52.29
2023-11-06T13:58:20.444Z,52.27
2023-11-06T14:01:09.564Z,52.67
2023-11-06T14:03:54.965Z,52.65
2023-11-06T14:06:40.113Z,53.19
2023-11-06T14:09:34.610Z,53.54
2023-11-06T14:12:19.928Z,53.92
2023-11-06T14:15:06.123Z,54.86
2023-11-06T14:17:51.081Z,55.58
2023-11-06T14:20:36.709Z,55.97
2023-11-06T14:23:26.559Z,56.89
2023-11-06T14:26:15.022Z,56.79
2023-11-06T14:29:00.220Z,57.29
2023-11-06T14:31:51.513Z,58.02
2023-11-06T14:34:36.963Z,58.30
2023-11-06T14:37:22.321Z,59.00
2023-11-06T14:40:14.810Z,59.20
2023-11-06T14:43:01.338Z,59.39
2023-11-06T14:45:50.641Z,59.80
2023-11-06T14:48:36.982Z,60.02
2023-11-06T14:51:22.520Z,60.39
2023-11-06T14:54:08.110Z,60.63
2023-11-06T14:56:53.304Z,61.15
2023-11-06T14:59:38.757Z,61.26
2023-11-06T15:02:23.984Z,62.01
2023-11-06T15:05:12.015Z,62.17
2023-11-06T15:07:58.141Z,62.61
2023-11-06T15:11:04.393Z,62.99
2023-11-06T15:13:50.091Z,63.00
2023-11-06T15:16:35.457Z,63.24
2023-11-06T15:19:20.900Z,63.13
2023-11-06T15:22:06.820Z,63.54
2023-11-06T15:24:52.479Z,63.59
2023-11-06T15:27:37.947Z,63.99
2023-11-06T15:30:23.523Z,64.05
2023-11-06T15:33:09.189Z,64.68
2023-11-06T15:35:54.904Z,64.52
2023-11-06T15:38:40.181Z,64.79
2023-11-06T15:41:25.402Z,65.06
2023-11-06T15:44:12.259Z,65.45
2023-11-06T15:46:58.237Z,65.95
2023-11-06T15:49:52.052Z,66.28
2023-11-06T15:52:37.182Z,66.18
2023-11-06T15:55:22.250Z,67.12
2023-11-06T15:58:07.619Z,66.94
2023-11-06T16:00:52.790Z,67.34
2023-11-06T16:03:38.355Z,67.53
2023-11-06T16:06:23.853Z,67.61
2023-11-06T16:09:09.434Z,67.90
2023-11-06T16:11:54.458Z,67.88
2023-11-06T16:14:40.031Z,68.45
2023-11-06T16:17:26.453Z,68.09
2023-11-06T16:20:12.495Z,68.39
2023-11-06T16:23:06.086Z,68.14
2023-11-06T16:25:51.452Z,68.38
2023-11-06T16:28:38.863Z,69.13
2023-11-06T16:31:24.424Z,69.03
2023-11-06T16:34:11.294Z,69.14
2023-11-06T16:36:57.172Z,69.20
2023-11-06T16:39:43.197Z,69.60
2023-11-06T16:42:29.844Z,69.52
2023-11-06T16:45:15.084Z,69.57
2023-11-06T16:48:00.573Z,70.04
2023-11-06T16:50:47.320Z,70.21
2023-11-06T16:53:33.073Z,69.87
2023-11-06T16:56:19.369Z,69.64
2023-11-06T16:59:05.769Z,69.55
2023-11-06T17:01:51.134Z,69.70
2023-11-06T17:04:36.492Z,70.04
2023-11-06T17:07:22.001Z,69.85
2023-11-06T17:10:08.276Z,70.10
2023-11-06T17:12:53.365Z,70.08
2023-11-06T17:15:38.622Z,70.17
2023-11-06T17:18:27.667Z,70.06
2023-11-06T17:21:13.531Z,70.69
2023-11-06T17:23:58.648Z,70.86
2023-11-06T17:26:43.905Z,71.73
2023-11-06T17:29:29.409Z,71.35
2023-11-06T17:32:14.796Z,71.37
2023-11-06T17:35:00.135Z,70.70
2023-11-06T17:37:45.313Z,71.55
2023-11-06T17:40:30.694Z,70.75
2023-11-06T17:43:16.516Z,71.03
2023-11-06T17:46:01.639Z,70.87
2023-11-06T17:48:47.494Z,71.23
2023-11-06T17:51:33.386Z,70.93
2023-11-06T17:54:20.253Z,71.39
2023-11-06T17:57:05.776Z,71.14
2023-11-06T17:59:51.472Z,71.53
2023-11-06T18:02:37.161Z,70.95
2023-11-06T18:05:24.561Z,71.99
2023-11-06T18:08:09.611Z,71.24
2023-11-06T18:10:54.990Z,71.88
2023-11-06T18:13:44.815Z,71.52
2023-11-06T18:16:33.085Z,73.18
2023-11-06T18:19:18.579Z,73.40
2023-11-06T18:22:04.261Z,73.52
2023-11-06T18:24:50.569Z,73.15
2023-11-06T18:27:39.987Z,73.07
2023-11-06T18:30:25.059Z,73.19
2023-11-06T18:33:11.423Z,74.35
2023-11-06T18:35:57.143Z,74.29
2023-11-06T18:38:42.866Z,73.87
2023-11-06T18:41:28.043Z,73.70
2023-11-06T18:44:13.532Z,73.44
2023-11-06T18:46:58.994Z,73.24
2023-11-06T18:49:44.491Z,73.33
2023-11-06T18:52:29.754Z,73.62
2023-11-06T18:55:17.306Z,73.40
2023-11-06T18:58:07.335Z,73.41
2023-11-06T19:00:52.316Z,73.43
2023-11-06T19:03:37.554Z,73.50
2023-11-06T19:06:26.041Z,73.42
2023-11-06T19:09:18.362Z,73.46
2023-11-06T19:12:03.963Z,73.25
2023-11-06T19:14:49.430Z,73.06
2023-11-06T19:17:34.706Z,72.94
2023-11-06T19:20:20.279Z,73.68
2023-11-06T19:23:05.571Z,73.30
2023-11-06T19:25:51.086Z,73.95
2023-11-06T19:28:36.238Z,73.49
2023-11-06T19:31:21.441Z,73.46
2023-11-06T19:34:07.037Z,73.48
2023-11-06T19:36:53.754Z,73.80
2023-11-06T19:39:39.264Z,73.94
2023-11-06T19:42:24.728Z,73.79
2023-11-06T19:45:14.875Z,73.15
2023-11-06T19:48:00.356Z,73.24
2023-11-06T19:50:46.102Z,73.81
2023-11-06T19:53:31.605Z,74.45
2023-11-06T19:56:17.036Z,74.62
2023-11-06T19:59:22.099Z,74.31
2023-11-06T20:02:10.851Z,74.50
2023-11-06T20:04:56.284Z,74.09
2023-11-06T20:07:44.019Z,74.07
2023-11-06T20:10:29.637Z,73.82
2023-11-06T20:13:14.862Z,73.89
2023-11-06T20:16:00.796Z,74.08
2023-11-06T20:18:46.409Z,74.39
2023-11-06T20:21:33.289Z,74.09
2023-11-06T20:24:19.592Z,74.18
2023-11-06T20:27:05.525Z,73.75
2023-11-06T20:29:50.903Z,74.12
2023-11-06T20:32:36.233Z,74.06
2023-11-06T20:35:21.625Z,74.23
2023-11-06T20:38:07.013Z,74.65
2023-11-06T20:40:54.883Z,75.13
2023-11-06T20:43:41.391Z,75.17
2023-11-06T20:46:26.803Z,74.85
2023-11-06T20:49:12.263Z,74.99
2023-11-06T20:51:57.610Z,75.02
2023-11-06T20:54:43.037Z,74.83
2023-11-06T20:57:28.955Z,74.70
2023-11-06T21:00:14.880Z,74.50
2023-11-06T21:03:00.168Z,74.50
2023-11-06T21:05:46.303Z,74.58
2023-11-06T21:08:31.542Z,73.97
2023-11-06T21:11:18.129Z,74.04
2023-11-06T21:14:03.514Z,74.25
2023-11-06T21:16:50.198Z,74.36
2023-11-06T21:19:37.427Z,74.10
2023-11-06T21:22:24.332Z,74.20
2023-11-06T21:25:13.859Z,74.14
2023-11-06T21:27:59.487Z,73.92
2023-11-06T21:30:45.091Z,74.43
2023-11-06T21:33:30.771Z,74.42
2023-11-06T21:36:16.601Z,74.23
2023-11-06T21:39:01.936Z,74.51
2023-11-06T21:41:47.273Z,74.94
2023-11-06T21:44:32.712Z,74.54
2023-11-06T21:47:18.119Z,74.97
2023-11-06T21:50:05.836Z,75.26
2023-11-06T21:52:51.057Z,75.06
2023-11-06T21:55:36.651Z,74.86
2023-11-06T21:58:29.620Z,74.54
2023-11-06T22:01:23.780Z,74.57
2023-11-06T22:04:09.267Z,74.42
2023-11-06T22:06:55.498Z,74.59
2023-11-06T22:09:40.455Z,74.48
2023-11-06T22:12:25.938Z,74.39
2023-11-06T22:15:11.257Z,74.73
2023-11-06T22:18:01.681Z,74.40
2023-11-06T22:20:48.170Z,75.10
2023-11-06T22:23:33.577Z,74.67
2023-11-06T22:26:18.940Z,74.59
2023-11-06T22:29:04.368Z,74.74
2023-11-06T22:31:49.869Z,74.77
2023-11-06T22:34:35.887Z,74.92
2023-11-06T22:37:22.693Z,74.61
2023-11-06T22:40:08.615Z,74.43
2023-11-06T22:42:54.049Z,74.11
2023-11-06T22:45:39.332Z,74.36
2023-11-06T22:48:25.049Z,74.27
2023-11-06T22:51:12.806Z,74.79
2023-11-06T22:53:59.260Z,74.47
2023-11-06T22:56:44.743Z,74.56
2023-11-06T22:59:30.197Z,74.33
2023-11-06T23:02:16.138Z,74.27
2023-11-06T23:05:01.575Z,74.11
2023-11-06T23:07:46.761Z,74.31
2023-11-06T23:10:32.375Z,75.17
2023-11-06T23:13:18.744Z,75.09
2023-11-06T23:16:04.442Z,74.69
2023-11-06T23:18:50.142Z,74.58
2023-11-06T23:21:35.434Z,74.73
2023-11-06T23:24:21.949Z,75.16
2023-11-06T23:27:08.379Z,75.07
2023-11-06T23:29:53.637Z,74.89
2023-11-06T23:32:39.135Z,75.00
2023-11-06T23:35:24.436Z,75.12
2023-11-06T23:38:10.049Z,74.86
2023-11-06T23:40:55.925Z,75.29
2023-11-06T23:43:41.849Z,75.33
2023-11-06T23:46:27.221Z,75.51
2023-11-06T23:49:12.609Z,75.67
2023-11-06T23:51:58.474Z,76.10
2023-11-06T23:54:43.747Z,75.74
2023-11-06T23:57:29.070Z,76.04
